Arzua, Spain
Current Conditions -  °F | °C
As of 10:30 AM on Saturday 20 Dec 2014 (Local Time) from LEST Reporting Station
Moderate Fog Moderate Fog  
Wind Chill: 48°   Ceiling: 300
Heat Index: 48°   Visibility: 5mi
Dew Point: 48°   Wind: 2mph
Humidity: 100%   Direction: NA
Pressure: 30.59"   Gusts: NA
Location:  42.93°N, 8.15°W
Report Text: LEST 200930Z VRB02KT 8000 1500NE VCFG SCT002 BKN003 OVC005 09/09 Q1036 NOSIG
Loading
Personal Weather Stations






























Interactive Weather Map New forecast layout! Learn more

10-Day Weather Forecast

Advertisements
Track Severe Weather on mobile